createdAt,value
2019-03-23T00:01:25.432Z,112.20
2019-03-23T00:03:51.222Z,107.37
2019-03-23T00:06:17.001Z,112.33
2019-03-23T00:08:42.806Z,119.77
2019-03-23T00:11:08.623Z,116.80
2019-03-23T00:13:34.388Z,114.40
2019-03-23T00:16:00.180Z,119.20
2019-03-23T00:18:25.993Z,128.77
2019-03-23T00:20:51.783Z,129.53
2019-03-23T00:23:17.581Z,153.20
2019-03-23T00:25:43.379Z,151.40
2019-03-23T00:28:09.157Z,146.37
2019-03-23T00:30:34.957Z,141.57
2019-03-23T00:33:00.734Z,162.10
2019-03-23T00:35:26.538Z,168.80
2019-03-23T00:37:52.326Z,163.47
2019-03-23T00:40:18.134Z,169.93
2019-03-23T00:42:43.921Z,155.17
2019-03-23T00:45:09.914Z,135.80
2019-03-23T00:47:35.710Z,141.80
2019-03-23T00:50:02.035Z,172.03
2019-03-23T00:52:27.797Z,150.17
2019-03-23T00:54:53.603Z,142.73
2019-03-23T00:57:19.385Z,181.70
2019-03-23T00:59:45.176Z,199.23
2019-03-23T01:02:10.973Z,174.43
2019-03-23T01:04:36.809Z,167.20
2019-03-23T01:07:02.750Z,180.87
2019-03-23T01:09:28.554Z,220.10
2019-03-23T01:11:54.332Z,182.63
2019-03-23T01:14:20.146Z,197.70
2019-03-23T01:16:45.928Z,187.77
2019-03-23T01:19:11.712Z,255.77
2019-03-23T01:21:37.786Z,262.97
2019-03-23T01:24:03.688Z,283.47
2019-03-23T01:26:29.486Z,281.40
2019-03-23T01:28:55.410Z,343.77
2019-03-23T01:31:21.336Z,513.33
2019-03-23T01:33:47.116Z,310.77
2019-03-23T01:36:13.052Z,364.00
2019-03-23T01:38:38.832Z,448.03
2019-03-23T01:41:05.072Z,368.77
2019-03-23T01:43:31.014Z,352.40
2019-03-23T01:45:56.816Z,451.83
2019-03-23T01:48:22.594Z,457.60
2019-03-23T01:50:49.054Z,368.30
2019-03-23T01:53:14.836Z,489.33
2019-03-23T01:55:40.869Z,723.60
2019-03-23T01:58:06.661Z,767.53
2019-03-23T02:00:32.554Z,545.53
2019-03-23T02:02:58.450Z,414.53
2019-03-23T02:05:24.486Z,410.93
2019-03-23T02:07:50.268Z,265.47
2019-03-23T02:10:16.061Z,297.33
2019-03-23T02:12:41.921Z,295.30
2019-03-23T02:15:09.722Z,274.90
2019-03-23T02:17:35.909Z,214.43
2019-03-23T02:20:04.953Z,219.37
2019-03-23T02:22:30.747Z,197.93
2019-03-23T02:24:57.334Z,199.63
2019-03-23T02:27:23.510Z,200.23
2019-03-23T02:29:49.336Z,201.30
2019-03-23T02:32:15.829Z,201.57
2019-03-23T02:34:42.358Z,196.57
2019-03-23T02:37:08.142Z,194.50
2019-03-23T02:39:34.039Z,196.67
2019-03-23T02:41:59.821Z,204.27
2019-03-23T02:44:25.600Z,204.17
2019-03-23T02:46:51.398Z,185.47
2019-03-23T02:49:17.907Z,189.40
2019-03-23T02:51:43.999Z,168.17
2019-03-23T02:54:09.856Z,176.20
2019-03-23T02:56:35.618Z,189.23
2019-03-23T02:59:04.608Z,176.73
2019-03-23T03:01:30.395Z,190.10
2019-03-23T03:03:56.177Z,189.47
2019-03-23T03:06:22.302Z,212.13
2019-03-23T03:08:48.088Z,188.40
2019-03-23T03:11:13.913Z,203.90
2019-03-23T03:13:39.692Z,191.70
2019-03-23T03:16:05.486Z,182.53
2019-03-23T03:18:31.289Z,190.77
2019-03-23T03:20:57.096Z,186.90
2019-03-23T03:23:22.884Z,189.33
2019-03-23T03:25:48.661Z,178.80
2019-03-23T03:28:14.473Z,182.13
2019-03-23T03:30:40.258Z,174.27
2019-03-23T03:33:06.040Z,182.13
2019-03-23T03:35:31.815Z,182.43
2019-03-23T03:37:57.622Z,197.40
2019-03-23T03:40:23.398Z,198.40
2019-03-23T03:42:49.220Z,193.23
2019-03-23T03:45:22.963Z,204.23
2019-03-23T03:47:48.763Z,213.07
2019-03-23T03:50:14.547Z,205.27
2019-03-23T03:52:40.341Z,218.47
2019-03-23T03:55:06.625Z,208.53
2019-03-23T03:57:32.420Z,181.87
2019-03-23T03:59:58.212Z,176.17
2019-03-23T04:02:24.033Z,166.97
2019-03-23T04:04:49.814Z,184.03
2019-03-23T04:07:15.671Z,175.90
2019-03-23T04:09:41.440Z,179.43
2019-03-23T04:12:07.217Z,182.83
2019-03-23T04:14:33.016Z,191.97
2019-03-23T04:16:58.800Z,186.97
2019-03-23T04:19:24.745Z,191.80
2019-03-23T04:21:50.520Z,191.20
2019-03-23T04:24:16.315Z,197.17
2019-03-23T04:26:42.097Z,202.10
2019-03-23T04:29:07.904Z,177.77
2019-03-23T04:31:33.681Z,187.90
2019-03-23T04:33:59.473Z,168.40
2019-03-23T04:36:25.248Z,181.97
2019-03-23T04:38:51.041Z,188.03
2019-03-23T04:41:16.819Z,194.73
2019-03-23T04:43:42.608Z,204.30
2019-03-23T04:46:08.393Z,190.80
2019-03-23T04:48:34.188Z,214.40
2019-03-23T04:50:59.968Z,197.33
2019-03-23T04:53:25.759Z,193.47
2019-03-23T04:55:51.552Z,188.07
2019-03-23T04:58:17.332Z,208.70
2019-03-23T05:00:43.135Z,203.27
2019-03-23T05:03:08.919Z,196.47
2019-03-23T05:05:34.715Z,196.00
2019-03-23T05:08:00.496Z,184.97
2019-03-23T05:10:26.304Z,179.90
2019-03-23T05:12:52.090Z,180.00
2019-03-23T05:15:17.894Z,172.47
2019-03-23T05:17:43.671Z,178.40
2019-03-23T05:20:13.279Z,186.23
2019-03-23T05:22:39.075Z,183.73
2019-03-23T05:25:05.671Z,186.23
2019-03-23T05:27:31.457Z,176.87
2019-03-23T05:29:57.258Z,171.13
2019-03-23T05:32:23.042Z,186.57
2019-03-23T05:34:48.835Z,171.47
2019-03-23T05:37:14.614Z,167.70
2019-03-23T05:39:40.397Z,165.30
2019-03-23T05:42:06.304Z,149.37
2019-03-23T05:44:32.083Z,158.67
2019-03-23T05:46:57.895Z,155.20
2019-03-23T05:49:23.681Z,158.17
2019-03-23T05:51:49.483Z,148.37
2019-03-23T05:54:15.260Z,151.60
2019-03-23T05:56:41.053Z,149.40
2019-03-23T05:59:06.840Z,156.60
2019-03-23T06:01:32.636Z,150.80
2019-03-23T06:03:58.413Z,143.73
2019-03-23T06:06:24.210Z,152.03
2019-03-23T06:08:54.903Z,146.47
2019-03-23T06:11:17.694Z,135.20
2019-03-23T06:13:43.476Z,144.43
2019-03-23T06:16:09.275Z,147.97
2019-03-23T06:18:35.057Z,144.43
2019-03-23T06:21:00.864Z,149.10
2019-03-23T06:23:26.645Z,138.03
2019-03-23T06:25:52.437Z,139.23
2019-03-23T06:28:18.237Z,143.73
2019-03-23T06:30:44.031Z,139.63
2019-03-23T06:33:09.816Z,140.23
2019-03-23T06:35:35.629Z,154.57
2019-03-23T06:38:01.404Z,149.57
2019-03-23T06:40:27.202Z,155.03
2019-03-23T06:42:59.756Z,144.23
2019-03-23T06:45:20.773Z,145.37
2019-03-23T06:47:46.569Z,150.67
2019-03-23T06:50:12.649Z,153.30
2019-03-23T06:52:38.458Z,149.33
2019-03-23T06:55:05.647Z,150.47
2019-03-23T06:57:31.444Z,153.77
2019-03-23T06:59:57.225Z,151.87
2019-03-23T07:02:23.023Z,148.63
2019-03-23T07:04:49.617Z,162.30
2019-03-23T07:07:15.429Z,138.73
2019-03-23T07:09:41.218Z,152.80
2019-03-23T07:12:07.021Z,144.80
2019-03-23T07:14:32.797Z,151.50
2019-03-23T07:16:58.592Z,142.90
2019-03-23T07:19:24.367Z,146.90
2019-03-23T07:21:50.582Z,148.73
2019-03-23T07:24:16.474Z,139.30
2019-03-23T07:26:42.272Z,134.87
2019-03-23T07:29:08.066Z,134.00
2019-03-23T07:31:33.846Z,146.27
2019-03-23T07:33:59.642Z,136.23
2019-03-23T07:36:25.422Z,129.43
2019-03-23T07:38:51.224Z,144.03
2019-03-23T07:41:16.996Z,131.47
2019-03-23T07:43:42.799Z,127.40
2019-03-23T07:46:08.631Z,130.50
2019-03-23T07:48:34.378Z,136.30
2019-03-23T07:51:00.146Z,127.50
2019-03-23T07:53:25.941Z,124.50
2019-03-23T07:55:51.725Z,125.43
2019-03-23T07:58:17.529Z,131.97
2019-03-23T08:00:43.292Z,126.50
2019-03-23T08:03:09.094Z,119.07
2019-03-23T08:05:34.880Z,114.93
2019-03-23T08:08:00.684Z,112.87
2019-03-23T08:10:30.866Z,122.10
2019-03-23T08:12:56.664Z,116.17
2019-03-23T08:15:22.444Z,114.30
2019-03-23T08:17:48.228Z,116.00
2019-03-23T08:20:14.037Z,122.27
2019-03-23T08:22:39.837Z,114.73
2019-03-23T08:25:05.727Z,119.20
2019-03-23T08:27:31.510Z,125.73
2019-03-23T08:29:57.306Z,122.57
2019-03-23T08:32:23.086Z,112.27
2019-03-23T08:34:48.881Z,115.73
2019-03-23T08:37:14.662Z,120.60
2019-03-23T08:39:48.048Z,117.27
2019-03-23T08:42:08.152Z,127.70
2019-03-23T08:44:33.953Z,114.23
2019-03-23T08:46:59.734Z,114.07
2019-03-23T08:49:25.535Z,126.20
2019-03-23T08:51:51.315Z,116.00
2019-03-23T08:54:17.115Z,113.60
2019-03-23T08:56:42.897Z,115.77
2019-03-23T08:59:08.687Z,117.17
2019-03-23T09:01:34.463Z,107.97
2019-03-23T09:04:00.286Z,114.07
2019-03-23T09:06:26.064Z,112.67
2019-03-23T09:08:51.847Z,112.63
2019-03-23T09:11:20.740Z,114.17
2019-03-23T09:13:45.333Z,111.53
2019-03-23T09:16:11.142Z,102.23
2019-03-23T09:18:36.926Z,110.00
2019-03-23T09:21:02.736Z,111.60
2019-03-23T09:23:28.522Z,109.50
2019-03-23T09:25:54.347Z,107.30
2019-03-23T09:28:20.115Z,101.53
2019-03-23T09:30:45.910Z,105.50
2019-03-23T09:33:11.700Z,104.87
2019-03-23T09:35:39.379Z,108.67
2019-03-23T09:38:05.192Z,110.63
2019-03-23T09:40:30.999Z,108.07
2019-03-23T09:42:56.779Z,100.77
2019-03-23T09:45:22.578Z,98.40
2019-03-23T09:47:48.360Z,99.10
2019-03-23T09:50:14.465Z,95.30
2019-03-23T09:52:40.260Z,99.87
2019-03-23T09:55:06.460Z,94.47
2019-03-23T09:57:32.269Z,91.30
2019-03-23T09:59:58.058Z,87.83
2019-03-23T10:02:23.864Z,92.80
2019-03-23T10:04:49.647Z,88.33
2019-03-23T10:07:15.445Z,83.53
2019-03-23T10:09:41.239Z,88.77
2019-03-23T10:12:07.043Z,89.30
2019-03-23T10:14:32.827Z,85.17
2019-03-23T10:16:58.624Z,79.30
2019-03-23T10:19:24.572Z,79.57
2019-03-23T10:21:50.353Z,76.40
2019-03-23T10:24:16.164Z,79.97
2019-03-23T10:26:41.960Z,70.23
2019-03-23T10:29:07.745Z,69.63
2019-03-23T10:31:33.538Z,66.73
2019-03-23T10:33:59.320Z,66.43
2019-03-23T10:36:25.122Z,70.00
2019-03-23T10:38:50.908Z,62.60
2019-03-23T10:41:16.723Z,63.53
2019-03-23T10:43:42.507Z,61.43
2019-03-23T10:46:08.305Z,56.80
2019-03-23T10:48:34.084Z,54.83
2019-03-23T10:50:59.873Z,53.03
2019-03-23T10:53:25.713Z,57.47
2019-03-23T10:55:51.490Z,49.93
2019-03-23T10:58:17.297Z,48.40
2019-03-23T11:00:43.080Z,43.90
2019-03-23T11:03:08.896Z,44.10
2019-03-23T11:05:34.678Z,44.67
2019-03-23T11:08:00.512Z,43.90
2019-03-23T11:10:26.276Z,45.17
2019-03-23T11:12:52.084Z,45.57
2019-03-23T11:15:17.874Z,44.13
2019-03-23T11:17:43.667Z,41.83
2019-03-23T11:20:11.149Z,43.60
2019-03-23T11:22:36.970Z,37.40
2019-03-23T11:25:05.160Z,38.93
2019-03-23T11:27:30.999Z,37.97
2019-03-23T11:29:56.790Z,39.83
2019-03-23T11:32:22.570Z,42.93
2019-03-23T11:34:48.365Z,39.40
2019-03-23T11:37:14.216Z,44.97
2019-03-23T11:39:40.057Z,37.67
2019-03-23T11:42:05.839Z,38.87
2019-03-23T11:44:31.625Z,35.50
2019-03-23T11:46:57.410Z,38.10
2019-03-23T11:49:23.217Z,37.17
2019-03-23T11:51:49.006Z,37.93
2019-03-23T11:54:14.805Z,37.03
2019-03-23T11:56:40.600Z,38.23
2019-03-23T11:59:06.398Z,36.63
2019-03-23T12:01:32.189Z,33.90
2019-03-23T12:03:57.989Z,33.73
2019-03-23T12:06:24.188Z,33.07
2019-03-23T12:08:49.986Z,35.40
2019-03-23T12:11:15.780Z,30.50
2019-03-23T12:13:41.572Z,29.47
2019-03-23T12:16:07.363Z,30.73
2019-03-23T12:18:33.153Z,26.13
2019-03-23T12:20:58.969Z,26.17
2019-03-23T12:23:24.799Z,31.00
2019-03-23T12:25:50.572Z,24.03
2019-03-23T12:28:16.386Z,19.53
2019-03-23T12:30:42.181Z,21.90
2019-03-23T12:33:07.968Z,23.53
2019-03-23T12:35:33.769Z,18.87
2019-03-23T12:37:59.569Z,23.67
2019-03-23T12:40:25.356Z,20.40
2019-03-23T12:42:51.142Z,17.57
2019-03-23T12:45:16.949Z,20.73
2019-03-23T12:47:42.748Z,15.73
2019-03-23T12:50:09.438Z,14.43
2019-03-23T12:52:35.227Z,14.27
2019-03-23T12:55:01.123Z,11.17
2019-03-23T12:57:26.903Z,12.67
2019-03-23T12:59:52.693Z,13.40
2019-03-23T13:02:18.482Z,17.50
2019-03-23T13:04:44.308Z,14.77
2019-03-23T13:07:10.094Z,13.57
2019-03-23T13:09:35.889Z,13.30
2019-03-23T13:12:01.669Z,8.73
2019-03-23T13:14:27.461Z,12.40
2019-03-23T13:16:53.258Z,10.97
2019-03-23T13:19:19.044Z,13.17
2019-03-23T13:21:44.865Z,13.23
2019-03-23T13:24:12.558Z,17.07
2019-03-23T13:26:38.360Z,11.83
2019-03-23T13:29:04.142Z,13.30
2019-03-23T13:31:29.941Z,10.67
2019-03-23T13:33:55.731Z,8.77
2019-03-23T13:36:21.522Z,13.47
2019-03-23T13:38:47.305Z,11.40
2019-03-23T13:41:13.110Z,9.53
2019-03-23T13:43:38.889Z,11.87
2019-03-23T13:46:04.694Z,13.07
2019-03-23T13:48:30.476Z,11.80
2019-03-23T13:50:56.277Z,10.63
2019-03-23T13:53:22.071Z,10.27
2019-03-23T13:55:47.903Z,9.90
2019-03-23T13:58:13.787Z,9.30
2019-03-23T14:00:39.578Z,10.23
2019-03-23T14:03:06.374Z,11.37
2019-03-23T14:05:32.157Z,12.13
2019-03-23T14:07:57.955Z,8.80
2019-03-23T14:10:23.750Z,6.13
2019-03-23T14:12:49.546Z,7.97
2019-03-23T14:15:15.324Z,9.47
2019-03-23T14:17:41.116Z,8.30
2019-03-23T14:20:06.897Z,9.10
2019-03-23T14:22:32.705Z,11.13
2019-03-23T14:24:58.490Z,9.70
2019-03-23T14:27:24.312Z,8.40
2019-03-23T14:29:50.154Z,9.27
2019-03-23T14:32:15.958Z,7.87
2019-03-23T14:34:41.762Z,8.67
2019-03-23T14:37:07.673Z,10.00
2019-03-23T14:39:33.460Z,13.80
2019-03-23T14:42:04.893Z,9.97
2019-03-23T14:44:26.949Z,9.87
2019-03-23T14:46:52.746Z,11.03
2019-03-23T14:49:18.527Z,12.77
2019-03-23T14:51:44.322Z,10.67
2019-03-23T14:54:10.145Z,10.13
2019-03-23T14:56:35.935Z,12.83
2019-03-23T14:59:01.730Z,9.50
2019-03-23T15:01:27.515Z,8.43
2019-03-23T15:03:53.341Z,11.20
2019-03-23T15:06:19.101Z,12.70
2019-03-23T15:08:44.901Z,11.30
2019-03-23T15:11:10.689Z,11.00
2019-03-23T15:13:36.487Z,12.03
2019-03-23T15:16:02.283Z,10.07
2019-03-23T15:18:28.101Z,8.43
2019-03-23T15:20:53.884Z,9.80
2019-03-23T15:23:19.711Z,8.37
2019-03-23T15:25:45.493Z,11.03
2019-03-23T15:28:11.314Z,8.73
2019-03-23T15:30:37.093Z,13.63
2019-03-23T15:33:02.886Z,8.47
2019-03-23T15:35:28.683Z,10.67
2019-03-23T15:37:54.473Z,9.97
2019-03-23T15:40:20.269Z,13.03
2019-03-23T15:42:46.065Z,9.37
2019-03-23T15:45:12.061Z,10.33
2019-03-23T15:47:37.856Z,11.80
2019-03-23T15:50:04.866Z,7.90
2019-03-23T15:52:30.659Z,8.83
2019-03-23T15:54:56.455Z,8.57
2019-03-23T15:57:22.239Z,11.73
2019-03-23T15:59:48.034Z,6.20
2019-03-23T16:02:13.820Z,6.67
2019-03-23T16:04:39.616Z,8.33
2019-03-23T16:07:05.414Z,9.33
2019-03-23T16:09:31.216Z,8.53
2019-03-23T16:11:57.010Z,13.00
2019-03-23T16:14:22.803Z,11.97
2019-03-23T16:16:48.594Z,10.70
2019-03-23T16:19:14.398Z,11.70
2019-03-23T16:21:40.207Z,12.97
2019-03-23T16:24:05.989Z,11.63
2019-03-23T16:26:31.787Z,10.90
2019-03-23T16:28:57.570Z,14.60
2019-03-23T16:31:23.365Z,11.43
2019-03-23T16:33:49.157Z,11.43
2019-03-23T16:36:14.961Z,12.07
2019-03-23T16:38:40.746Z,14.40
2019-03-23T16:41:06.546Z,15.33
2019-03-23T16:43:32.324Z,12.37
2019-03-23T16:45:58.121Z,14.90
2019-03-23T16:48:23.980Z,13.27
2019-03-23T16:50:49.842Z,12.77
2019-03-23T16:53:15.632Z,12.70
2019-03-23T16:55:41.449Z,11.80
2019-03-23T16:58:15.694Z,14.03
2019-03-23T17:00:36.453Z,12.00
2019-03-23T17:03:03.250Z,12.77
2019-03-23T17:05:29.056Z,11.80
2019-03-23T17:07:54.834Z,13.40
2019-03-23T17:10:20.617Z,12.30
2019-03-23T17:12:55.096Z,13.70
2019-03-23T17:15:14.101Z,19.40
2019-03-23T17:17:39.896Z,20.13
2019-03-23T17:20:05.886Z,18.13
2019-03-23T17:22:31.696Z,17.73
2019-03-23T17:24:57.483Z,16.83
2019-03-23T17:27:23.301Z,16.87
2019-03-23T17:29:49.085Z,20.43
2019-03-23T17:32:14.892Z,15.03
2019-03-23T17:34:40.673Z,19.37
2019-03-23T17:37:06.529Z,21.03
2019-03-23T17:39:32.295Z,15.13
2019-03-23T17:41:58.089Z,19.30
2019-03-23T17:44:23.873Z,14.37
2019-03-23T17:46:49.669Z,18.17
2019-03-23T17:49:15.445Z,18.90
2019-03-23T17:51:41.242Z,22.47
2019-03-23T17:54:07.022Z,16.30
2019-03-23T17:56:32.886Z,16.90
2019-03-23T17:58:58.666Z,26.17
2019-03-23T18:01:24.453Z,20.63
2019-03-23T18:03:50.253Z,22.53
2019-03-23T18:06:16.047Z,21.17
2019-03-23T18:08:41.841Z,17.03
2019-03-23T18:11:07.626Z,19.53
2019-03-23T18:13:33.424Z,25.93
2019-03-23T18:15:59.208Z,20.60
2019-03-23T18:18:25.008Z,18.23
2019-03-23T18:20:50.790Z,20.87
2019-03-23T18:23:16.823Z,22.13
2019-03-23T18:25:42.596Z,17.83
2019-03-23T18:28:08.395Z,17.07
2019-03-23T18:30:39.209Z,20.80
2019-03-23T18:33:05.214Z,22.10
2019-03-23T18:35:31.090Z,23.10
2019-03-23T18:37:56.881Z,25.83
2019-03-23T18:40:22.671Z,21.33
2019-03-23T18:42:48.455Z,22.23
2019-03-23T18:45:14.268Z,27.23
2019-03-23T18:47:40.052Z,24.20
2019-03-23T18:50:05.957Z,21.47
2019-03-23T18:52:31.846Z,28.63
2019-03-23T18:54:57.735Z,24.53
2019-03-23T18:57:23.517Z,20.33
2019-03-23T18:59:49.328Z,22.17
2019-03-23T19:02:15.100Z,24.70
2019-03-23T19:04:40.895Z,23.17
2019-03-23T19:07:06.679Z,25.80
2019-03-23T19:09:32.493Z,23.70
2019-03-23T19:11:58.472Z,24.93
2019-03-23T19:14:24.278Z,28.30
2019-03-23T19:16:50.060Z,23.13
2019-03-23T19:19:15.858Z,20.40
2019-03-23T19:21:41.650Z,21.57
2019-03-23T19:24:07.444Z,24.53
2019-03-23T19:26:33.227Z,24.00
2019-03-23T19:28:59.036Z,25.27
2019-03-23T19:31:24.819Z,19.97
2019-03-23T19:33:50.595Z,28.63
2019-03-23T19:36:16.394Z,27.67
2019-03-23T19:38:42.177Z,23.30
2019-03-23T19:41:07.973Z,24.83
2019-03-23T19:43:33.759Z,25.67
2019-03-23T19:45:59.558Z,27.70
2019-03-23T19:48:25.344Z,20.10
2019-03-23T19:50:51.134Z,30.13
2019-03-23T19:53:17.033Z,29.80
2019-03-23T19:55:42.823Z,23.47
2019-03-23T19:58:08.606Z,31.53
2019-03-23T20:00:34.413Z,27.07
2019-03-23T20:03:00.194Z,27.53
2019-03-23T20:05:26.015Z,30.60
2019-03-23T20:07:51.777Z,29.87
2019-03-23T20:10:17.687Z,25.90
2019-03-23T20:12:43.465Z,25.80
2019-03-23T20:15:09.870Z,28.07
2019-03-23T20:17:35.652Z,27.40
2019-03-23T20:20:03.549Z,27.07
2019-03-23T20:22:29.345Z,32.53
2019-03-23T20:24:55.828Z,33.67
2019-03-23T20:27:21.613Z,25.23
2019-03-23T20:29:47.396Z,33.43
2019-03-23T20:32:13.194Z,28.00
2019-03-23T20:34:38.978Z,28.07
2019-03-23T20:37:04.780Z,30.97
2019-03-23T20:39:30.567Z,32.63
2019-03-23T20:41:56.370Z,24.97
2019-03-23T20:44:22.157Z,39.50
2019-03-23T20:46:48.043Z,32.37
2019-03-23T20:49:13.921Z,31.73
2019-03-23T20:51:40.039Z,34.77
2019-03-23T20:54:05.813Z,29.30
2019-03-23T20:56:31.606Z,31.37
2019-03-23T20:58:57.384Z,35.50
2019-03-23T21:01:23.176Z,30.53
2019-03-23T21:03:48.966Z,30.57
2019-03-23T21:06:14.762Z,31.57
2019-03-23T21:08:40.541Z,41.07
2019-03-23T21:11:06.329Z,37.63
2019-03-23T21:13:32.112Z,38.73
2019-03-23T21:15:57.931Z,33.27
2019-03-23T21:18:23.706Z,31.40
2019-03-23T21:20:49.484Z,35.73
2019-03-23T21:23:15.301Z,29.00
2019-03-23T21:25:41.081Z,30.30
2019-03-23T21:28:06.884Z,30.57
2019-03-23T21:30:32.673Z,38.30
2019-03-23T21:32:58.473Z,39.03
2019-03-23T21:35:24.245Z,36.70
2019-03-23T21:37:50.102Z,32.17
2019-03-23T21:40:15.838Z,33.20
2019-03-23T21:42:41.636Z,33.43
2019-03-23T21:45:08.126Z,31.67
2019-03-23T21:47:34.129Z,32.00
2019-03-23T21:49:59.913Z,40.33
2019-03-23T21:52:25.718Z,29.83
2019-03-23T21:54:51.505Z,36.13
2019-03-23T21:57:17.385Z,27.80
2019-03-23T21:59:43.185Z,37.93
2019-03-23T22:02:08.960Z,37.23
2019-03-23T22:04:35.037Z,37.17
2019-03-23T22:07:00.868Z,38.93
2019-03-23T22:09:26.662Z,29.57
2019-03-23T22:11:52.448Z,43.10
2019-03-23T22:14:18.387Z,33.10
2019-03-23T22:16:44.324Z,32.60
2019-03-23T22:19:10.116Z,35.60
2019-03-23T22:21:35.914Z,33.83
2019-03-23T22:24:01.708Z,32.03
2019-03-23T22:26:27.496Z,35.77
2019-03-23T22:28:53.289Z,32.47
2019-03-23T22:31:19.076Z,35.20
2019-03-23T22:33:44.871Z,31.60
2019-03-23T22:36:10.654Z,34.77
2019-03-23T22:38:36.454Z,30.83
2019-03-23T22:41:02.236Z,33.33
2019-03-23T22:43:28.046Z,32.93
2019-03-23T22:45:53.840Z,36.67
2019-03-23T22:48:19.622Z,30.43
2019-03-23T22:50:45.428Z,32.30
2019-03-23T22:53:11.217Z,34.63
2019-03-23T22:55:37.016Z,40.37
2019-03-23T22:58:02.897Z,33.20
2019-03-23T23:00:42.175Z,40.80
2019-03-23T23:03:08.264Z,39.63
2019-03-23T23:05:34.060Z,41.93
2019-03-23T23:07:59.842Z,35.33
2019-03-23T23:10:25.632Z,32.10
2019-03-23T23:12:51.422Z,37.97
2019-03-23T23:15:17.295Z,27.63
2019-03-23T23:17:43.074Z,38.00
2019-03-23T23:20:09.066Z,40.07
2019-03-23T23:22:34.856Z,32.70
2019-03-23T23:25:01.151Z,32.33
2019-03-23T23:27:26.933Z,38.60
2019-03-23T23:29:52.729Z,32.63
2019-03-23T23:32:18.508Z,37.53
2019-03-23T23:34:44.360Z,31.87
2019-03-23T23:37:10.107Z,31.00
2019-03-23T23:39:35.885Z,36.83
2019-03-23T23:42:01.677Z,31.60
2019-03-23T23:44:27.467Z,35.43
2019-03-23T23:46:53.275Z,31.73
2019-03-23T23:49:19.065Z,33.73
2019-03-23T23:51:50.084Z,34.07
2019-03-23T23:54:12.558Z,40.53
2019-03-23T23:56:38.408Z,32.00
2019-03-23T23:59:04.242Z,34.63
